sensor_id;sensor_type;location;lat;lon;timestamp;P1;durP1;ratioP1;P2;durP2;ratioP2
40931;SDS011;36257;46.052;12.540;2022-11-20T00:00:03;3.40;;;3.10;;
40931;SDS011;36257;46.052;12.540;2022-11-20T00:02:29;3.00;;;2.80;;
40931;SDS011;36257;46.052;12.540;2022-11-20T00:04:55;3.47;;;3.13;;
40931;SDS011;36257;46.052;12.540;2022-11-20T00:07:20;3.83;;;3.63;;
40931;SDS011;36257;46.052;12.540;2022-11-20T00:09:46;3.20;;;3.00;;
40931;SDS011;36257;46.052;12.540;2022-11-20T00:12:11;3.75;;;3.45;;
40931;SDS011;36257;46.052;12.540;2022-11-20T00:14:38;2.72;;;2.53;;
40931;SDS011;36257;46.052;12.540;2022-11-20T00:17:04;2.55;;;2.45;;
40931;SDS011;36257;46.052;12.540;2022-11-20T00:19:29;3.65;;;3.08;;
40931;SDS011;36257;46.052;12.540;2022-11-20T00:21:55;2.92;;;2.72;;
40931;SDS011;36257;46.052;12.540;2022-11-20T00:24:20;3.58;;;2.90;;
40931;SDS011;36257;46.052;12.540;2022-11-20T00:26:46;3.13;;;2.78;;
40931;SDS011;36257;46.052;12.540;2022-11-20T00:29:12;3.13;;;2.60;;
40931;SDS011;36257;46.052;12.540;2022-11-20T00:31:37;2.70;;;2.42;;
40931;SDS011;36257;46.052;12.540;2022-11-20T00:34:03;4.55;;;2.50;;
40931;SDS011;36257;46.052;12.540;2022-11-20T00:36:31;2.78;;;2.65;;
40931;SDS011;36257;46.052;12.540;2022-11-20T00:38:58;3.05;;;2.85;;
40931;SDS011;36257;46.052;12.540;2022-11-20T00:41:24;3.03;;;2.67;;
40931;SDS011;36257;46.052;12.540;2022-11-20T00:43:51;2.45;;;2.35;;
40931;SDS011;36257;46.052;12.540;2022-11-20T00:46:19;3.13;;;2.92;;
40931;SDS011;36257;46.052;12.540;2022-11-20T00:48:46;3.63;;;3.13;;
40931;SDS011;36257;46.052;12.540;2022-11-20T00:51:13;3.35;;;3.15;;
40931;SDS011;36257;46.052;12.540;2022-11-20T00:53:43;3.55;;;3.25;;
40931;SDS011;36257;46.052;12.540;2022-11-20T00:56:10;3.00;;;2.80;;
40931;SDS011;36257;46.052;12.540;2022-11-20T00:58:41;3.30;;;3.10;;
40931;SDS011;36257;46.052;12.540;2022-11-20T01:01:09;6.03;;;3.17;;
40931;SDS011;36257;46.052;12.540;2022-11-20T01:03:43;3.35;;;3.15;;
40931;SDS011;36257;46.052;12.540;2022-11-20T01:06:14;3.20;;;2.97;;
40931;SDS011;36257;46.052;12.540;2022-11-20T01:08:42;2.28;;;2.17;;
40931;SDS011;36257;46.052;12.540;2022-11-20T01:11:09;3.70;;;2.72;;
40931;SDS011;36257;46.052;12.540;2022-11-20T01:13:37;2.78;;;2.58;;
40931;SDS011;36257;46.052;12.540;2022-11-20T01:18:34;3.03;;;2.83;;
40931;SDS011;36257;46.052;12.540;2022-11-20T01:21:23;3.28;;;3.08;;
40931;SDS011;36257;46.052;12.540;2022-11-20T01:23:48;3.75;;;3.45;;
40931;SDS011;36257;46.052;12.540;2022-11-20T01:26:17;4.05;;;3.65;;
40931;SDS011;36257;46.052;12.540;2022-11-20T01:28:45;3.25;;;3.05;;
40931;SDS011;36257;46.052;12.540;2022-11-20T01:33:38;3.15;;;2.88;;
40931;SDS011;36257;46.052;12.540;2022-11-20T01:36:05;3.23;;;3.03;;
40931;SDS011;36257;46.052;12.540;2022-11-20T01:38:31;3.42;;;3.22;;
40931;SDS011;36257;46.052;12.540;2022-11-20T01:40:57;3.55;;;3.30;;
40931;SDS011;36257;46.052;12.540;2022-11-20T01:43:22;3.47;;;3.27;;
40931;SDS011;36257;46.052;12.540;2022-11-20T01:49:02;3.53;;;3.20;;
40931;SDS011;36257;46.052;12.540;2022-11-20T01:55:09;2.85;;;2.70;;
40931;SDS011;36257;46.052;12.540;2022-11-20T01:57:35;3.43;;;3.13;;
40931;SDS011;36257;46.052;12.540;2022-11-20T02:00:05;4.25;;;3.13;;
40931;SDS011;36257;46.052;12.540;2022-11-20T02:02:33;3.37;;;3.13;;
40931;SDS011;36257;46.052;12.540;2022-11-20T02:05:01;4.13;;;3.70;;
40931;SDS011;36257;46.052;12.540;2022-11-20T02:07:34;4.10;;;3.10;;
40931;SDS011;36257;46.052;12.540;2022-11-20T02:10:00;3.43;;;3.23;;
40931;SDS011;36257;46.052;12.540;2022-11-20T02:12:26;3.73;;;3.50;;
40931;SDS011;36257;46.052;12.540;2022-11-20T02:15:11;3.87;;;3.57;;
40931;SDS011;36257;46.052;12.540;2022-11-20T02:17:37;3.60;;;3.30;;
40931;SDS011;36257;46.052;12.540;2022-11-20T02:20:03;3.80;;;3.50;;
40931;SDS011;36257;46.052;12.540;2022-11-20T02:22:31;4.20;;;3.90;;
40931;SDS011;36257;46.052;12.540;2022-11-20T02:25:03;3.60;;;3.40;;
40931;SDS011;36257;46.052;12.540;2022-11-20T02:27:30;4.35;;;4.05;;
40931;SDS011;36257;46.052;12.540;2022-11-20T02:29:57;3.93;;;3.57;;
40931;SDS011;36257;46.052;12.540;2022-11-20T02:32:30;4.00;;;3.70;;
40931;SDS011;36257;46.052;12.540;2022-11-20T02:34:58;3.90;;;3.60;;
40931;SDS011;36257;46.052;12.540;2022-11-20T02:37:32;4.30;;;4.00;;
40931;SDS011;36257;46.052;12.540;2022-11-20T02:40:01;3.93;;;3.63;;
40931;SDS011;36257;46.052;12.540;2022-11-20T02:42:27;3.93;;;3.60;;
40931;SDS011;36257;46.052;12.540;2022-11-20T02:44:53;4.17;;;3.87;;
40931;SDS011;36257;46.052;12.540;2022-11-20T02:47:19;2.47;;;2.37;;
40931;SDS011;36257;46.052;12.540;2022-11-20T02:49:44;3.73;;;3.50;;
40931;SDS011;36257;46.052;12.540;2022-11-20T02:52:10;4.37;;;3.37;;
40931;SDS011;36257;46.052;12.540;2022-11-20T02:54:35;3.60;;;3.40;;
40931;SDS011;36257;46.052;12.540;2022-11-20T02:57:01;3.43;;;3.13;;
40931;SDS011;36257;46.052;12.540;2022-11-20T02:59:27;3.73;;;3.53;;
40931;SDS011;36257;46.052;12.540;2022-11-20T03:01:52;3.00;;;2.80;;
40931;SDS011;36257;46.052;12.540;2022-11-20T03:04:18;3.80;;;3.50;;
40931;SDS011;36257;46.052;12.540;2022-11-20T03:06:43;4.17;;;3.83;;
40931;SDS011;36257;46.052;12.540;2022-11-20T03:09:09;3.60;;;3.40;;
40931;SDS011;36257;46.052;12.540;2022-11-20T03:11:34;4.13;;;3.90;;
40931;SDS011;36257;46.052;12.540;2022-11-20T03:14:04;3.83;;;3.60;;
40931;SDS011;36257;46.052;12.540;2022-11-20T03:16:30;3.17;;;2.97;;
40931;SDS011;36257;46.052;12.540;2022-11-20T03:18:56;4.00;;;3.70;;
40931;SDS011;36257;46.052;12.540;2022-11-20T03:21:22;3.77;;;3.47;;
40931;SDS011;36257;46.052;12.540;2022-11-20T03:23:47;4.50;;;4.20;;
40931;SDS011;36257;46.052;12.540;2022-11-20T03:26:15;3.70;;;3.50;;
40931;SDS011;36257;46.052;12.540;2022-11-20T03:28:46;3.40;;;3.13;;
40931;SDS011;36257;46.052;12.540;2022-11-20T03:31:14;3.70;;;3.50;;
40931;SDS011;36257;46.052;12.540;2022-11-20T03:33:41;3.97;;;3.67;;
40931;SDS011;36257;46.052;12.540;2022-11-20T03:36:08;3.50;;;3.20;;
40931;SDS011;36257;46.052;12.540;2022-11-20T03:38:36;2.93;;;2.73;;
40931;SDS011;36257;46.052;12.540;2022-11-20T03:41:06;3.60;;;3.40;;
40931;SDS011;36257;46.052;12.540;2022-11-20T03:43:34;3.47;;;3.27;;
40931;SDS011;36257;46.052;12.540;2022-11-20T03:46:00;2.97;;;2.87;;
40931;SDS011;36257;46.052;12.540;2022-11-20T03:48:26;3.57;;;3.37;;
40931;SDS011;36257;46.052;12.540;2022-11-20T03:50:52;3.77;;;3.57;;
40931;SDS011;36257;46.052;12.540;2022-11-20T03:53:30;3.70;;;3.50;;
40931;SDS011;36257;46.052;12.540;2022-11-20T03:55:56;3.03;;;2.60;;
40931;SDS011;36257;46.052;12.540;2022-11-20T03:58:22;3.93;;;3.50;;
40931;SDS011;36257;46.052;12.540;2022-11-20T04:00:47;3.03;;;2.83;;
40931;SDS011;36257;46.052;12.540;2022-11-20T04:03:13;3.90;;;3.53;;
40931;SDS011;36257;46.052;12.540;2022-11-20T04:05:38;3.63;;;3.33;;
40931;SDS011;36257;46.052;12.540;2022-11-20T04:08:04;2.77;;;2.67;;
40931;SDS011;36257;46.052;12.540;2022-11-20T04:10:30;2.90;;;2.80;;
40931;SDS011;36257;46.052;12.540;2022-11-20T04:12:55;2.93;;;2.73;;
40931;SDS011;36257;46.052;12.540;2022-11-20T04:15:21;3.50;;;3.07;;
40931;SDS011;36257;46.052;12.540;2022-11-20T04:17:47;3.53;;;3.33;;
40931;SDS011;36257;46.052;12.540;2022-11-20T04:20:12;3.83;;;3.63;;
40931;SDS011;36257;46.052;12.540;2022-11-20T04:22:38;3.53;;;3.33;;
40931;SDS011;36257;46.052;12.540;2022-11-20T04:25:04;2.97;;;2.83;;
40931;SDS011;36257;46.052;12.540;2022-11-20T04:27:30;3.17;;;3.07;;
40931;SDS011;36257;46.052;12.540;2022-11-20T04:29:55;3.47;;;3.27;;
40931;SDS011;36257;46.052;12.540;2022-11-20T04:32:21;3.63;;;3.33;;
40931;SDS011;36257;46.052;12.540;2022-11-20T04:34:47;4.00;;;3.67;;
40931;SDS011;36257;46.052;12.540;2022-11-20T04:37:12;2.83;;;2.67;;
40931;SDS011;36257;46.052;12.540;2022-11-20T04:39:38;3.83;;;3.63;;
40931;SDS011;36257;46.052;12.540;2022-11-20T04:42:03;3.17;;;2.90;;
40931;SDS011;36257;46.052;12.540;2022-11-20T04:44:48;3.57;;;3.37;;
40931;SDS011;36257;46.052;12.540;2022-11-20T04:47:13;2.93;;;2.80;;
40931;SDS011;36257;46.052;12.540;2022-11-20T04:49:39;3.93;;;3.73;;
40931;SDS011;36257;46.052;12.540;2022-11-20T04:52:05;3.40;;;3.20;;
40931;SDS011;36257;46.052;12.540;2022-11-20T04:54:30;3.20;;;3.00;;
40931;SDS011;36257;46.052;12.540;2022-11-20T04:56:56;3.40;;;3.20;;
40931;SDS011;36257;46.052;12.540;2022-11-20T04:59:21;3.07;;;2.87;;
40931;SDS011;36257;46.052;12.540;2022-11-20T05:01:47;4.70;;;4.30;;
40931;SDS011;36257;46.052;12.540;2022-11-20T05:04:13;4.93;;;4.33;;
40931;SDS011;36257;46.052;12.540;2022-11-20T05:06:38;8.93;;;6.33;;
40931;SDS011;36257;46.052;12.540;2022-11-20T05:09:04;9.07;;;6.60;;
40931;SDS011;36257;46.052;12.540;2022-11-20T05:11:31;7.83;;;5.57;;
40931;SDS011;36257;46.052;12.540;2022-11-20T05:13:57;4.28;;;3.97;;
40931;SDS011;36257;46.052;12.540;2022-11-20T05:16:24;3.05;;;2.60;;
40931;SDS011;36257;46.052;12.540;2022-11-20T05:18:51;2.60;;;2.50;;
40931;SDS011;36257;46.052;12.540;2022-11-20T05:21:18;3.50;;;3.30;;
40931;SDS011;36257;46.052;12.540;2022-11-20T05:23:44;2.87;;;2.77;;
40931;SDS011;36257;46.052;12.540;2022-11-20T05:26:14;2.40;;;2.30;;
40931;SDS011;36257;46.052;12.540;2022-11-20T05:28:42;2.93;;;2.83;;
40931;SDS011;36257;46.052;12.540;2022-11-20T05:31:08;2.53;;;2.43;;
40931;SDS011;36257;46.052;12.540;2022-11-20T05:33:42;3.33;;;3.13;;
40931;SDS011;36257;46.052;12.540;2022-11-20T05:36:09;2.73;;;2.63;;
40931;SDS011;36257;46.052;12.540;2022-11-20T05:38:36;3.22;;;3.13;;
40931;SDS011;36257;46.052;12.540;2022-11-20T05:43:32;3.17;;;2.90;;
40931;SDS011;36257;46.052;12.540;2022-11-20T05:45:59;2.83;;;2.73;;
40931;SDS011;36257;46.052;12.540;2022-11-20T05:48:25;2.90;;;2.80;;
40931;SDS011;36257;46.052;12.540;2022-11-20T05:50:51;2.43;;;2.33;;
40931;SDS011;36257;46.052;12.540;2022-11-20T05:53:16;3.13;;;2.93;;
40931;SDS011;36257;46.052;12.540;2022-11-20T05:55:42;3.33;;;3.23;;
40931;SDS011;36257;46.052;12.540;2022-11-20T05:58:08;3.20;;;3.10;;
40931;SDS011;36257;46.052;12.540;2022-11-20T06:00:33;3.13;;;2.87;;
40931;SDS011;36257;46.052;12.540;2022-11-20T06:02:59;3.10;;;2.90;;
40931;SDS011;36257;46.052;12.540;2022-11-20T06:05:25;2.80;;;2.70;;
40931;SDS011;36257;46.052;12.540;2022-11-20T06:07:50;2.53;;;2.43;;
40931;SDS011;36257;46.052;12.540;2022-11-20T06:10:16;2.60;;;2.50;;
40931;SDS011;36257;46.052;12.540;2022-11-20T06:12:41;2.90;;;2.80;;
40931;SDS011;36257;46.052;12.540;2022-11-20T06:15:07;3.67;;;3.37;;
40931;SDS011;36257;46.052;12.540;2022-11-20T06:17:33;3.93;;;3.63;;
40931;SDS011;36257;46.052;12.540;2022-11-20T06:19:59;3.23;;;3.03;;
40931;SDS011;36257;46.052;12.540;2022-11-20T06:22:24;3.07;;;2.87;;
40931;SDS011;36257;46.052;12.540;2022-11-20T06:24:50;3.83;;;3.20;;
40931;SDS011;36257;46.052;12.540;2022-11-20T06:27:15;5.97;;;5.47;;
40931;SDS011;36257;46.052;12.540;2022-11-20T06:29:41;5.20;;;4.80;;
40931;SDS011;36257;46.052;12.540;2022-11-20T06:32:07;3.70;;;3.40;;
40931;SDS011;36257;46.052;12.540;2022-11-20T06:34:33;4.03;;;3.83;;
40931;SDS011;36257;46.052;12.540;2022-11-20T06:36:58;4.03;;;3.77;;
40931;SDS011;36257;46.052;12.540;2022-11-20T06:39:24;4.83;;;4.57;;
40931;SDS011;36257;46.052;12.540;2022-11-20T06:41:50;5.00;;;4.77;;
40931;SDS011;36257;46.052;12.540;2022-11-20T06:44:15;6.40;;;4.23;;
40931;SDS011;36257;46.052;12.540;2022-11-20T06:46:41;4.50;;;4.30;;
40931;SDS011;36257;46.052;12.540;2022-11-20T06:51:42;5.60;;;5.27;;
40931;SDS011;36257;46.052;12.540;2022-11-20T06:56:41;4.70;;;4.50;;
40931;SDS011;36257;46.052;12.540;2022-11-20T06:59:07;5.30;;;4.90;;
40931;SDS011;36257;46.052;12.540;2022-11-20T07:01:33;3.87;;;3.60;;
40931;SDS011;36257;46.052;12.540;2022-11-20T07:03:59;4.18;;;3.97;;
40931;SDS011;36257;46.052;12.540;2022-11-20T07:06:25;4.13;;;3.70;;
40931;SDS011;36257;46.052;12.540;2022-11-20T07:08:51;4.20;;;4.00;;
40931;SDS011;36257;46.052;12.540;2022-11-20T07:11:17;4.03;;;3.83;;
40931;SDS011;36257;46.052;12.540;2022-11-20T07:13:43;4.80;;;4.60;;
40931;SDS011;36257;46.052;12.540;2022-11-20T07:16:09;5.77;;;5.43;;
40931;SDS011;36257;46.052;12.540;2022-11-20T07:18:35;4.03;;;3.83;;
40931;SDS011;36257;46.052;12.540;2022-11-20T07:21:05;5.37;;;4.87;;
40931;SDS011;36257;46.052;12.540;2022-11-20T07:23:32;7.60;;;5.83;;
40931;SDS011;36257;46.052;12.540;2022-11-20T07:26:02;7.40;;;6.70;;
40931;SDS011;36257;46.052;12.540;2022-11-20T07:28:32;6.40;;;5.80;;
40931;SDS011;36257;46.052;12.540;2022-11-20T07:30:58;5.93;;;5.53;;
40931;SDS011;36257;46.052;12.540;2022-11-20T07:33:24;3.93;;;3.63;;
40931;SDS011;36257;46.052;12.540;2022-11-20T07:35:50;4.03;;;3.83;;
40931;SDS011;36257;46.052;12.540;2022-11-20T07:38:16;3.93;;;3.73;;
40931;SDS011;36257;46.052;12.540;2022-11-20T07:40:45;3.30;;;3.10;;
40931;SDS011;36257;46.052;12.540;2022-11-20T07:43:11;3.47;;;3.27;;
40931;SDS011;36257;46.052;12.540;2022-11-20T07:45:37;2.97;;;2.70;;
40931;SDS011;36257;46.052;12.540;2022-11-20T07:48:19;3.60;;;3.40;;
40931;SDS011;36257;46.052;12.540;2022-11-20T07:50:45;2.40;;;2.30;;
40931;SDS011;36257;46.052;12.540;2022-11-20T07:53:11;2.73;;;2.63;;
40931;SDS011;36257;46.052;12.540;2022-11-20T07:55:38;2.45;;;2.35;;
40931;SDS011;36257;46.052;12.540;2022-11-20T07:58:05;2.90;;;2.73;;
40931;SDS011;36257;46.052;12.540;2022-11-20T08:00:30;11.23;;;7.87;;
40931;SDS011;36257;46.052;12.540;2022-11-20T08:02:56;10.13;;;7.50;;
40931;SDS011;36257;46.052;12.540;2022-11-20T08:05:22;10.53;;;6.37;;
40931;SDS011;36257;46.052;12.540;2022-11-20T08:07:48;4.50;;;4.07;;
40931;SDS011;36257;46.052;12.540;2022-11-20T09:12:18;2.67;;;2.47;;
40931;SDS011;36257;46.052;12.540;2022-11-20T09:14:44;3.67;;;2.85;;
40931;SDS011;36257;46.052;12.540;2022-11-20T09:17:10;3.35;;;3.08;;
40931;SDS011;36257;46.052;12.540;2022-11-20T09:19:38;3.67;;;2.90;;
40931;SDS011;36257;46.052;12.540;2022-11-20T09:22:04;7.75;;;3.58;;
40931;SDS011;36257;46.052;12.540;2022-11-20T09:24:29;3.58;;;3.10;;
40931;SDS011;36257;46.052;12.540;2022-11-20T09:26:55;4.90;;;3.05;;
40931;SDS011;36257;46.052;12.540;2022-11-20T09:29:21;3.13;;;2.92;;
40931;SDS011;36257;46.052;12.540;2022-11-20T09:31:46;3.55;;;3.25;;
40931;SDS011;36257;46.052;12.540;2022-11-20T09:34:12;3.70;;;3.40;;
40931;SDS011;36257;46.052;12.540;2022-11-20T09:36:37;4.30;;;3.35;;
40931;SDS011;36257;46.052;12.540;2022-11-20T09:39:03;4.00;;;3.60;;
40931;SDS011;36257;46.052;12.540;2022-11-20T09:46:47;4.18;;;3.22;;
40931;SDS011;36257;46.052;12.540;2022-11-20T09:54:56;3.30;;;3.00;;
40931;SDS011;36257;46.052;12.540;2022-11-20T09:57:28;3.03;;;2.72;;
40931;SDS011;36257;46.052;12.540;2022-11-20T10:00:02;3.30;;;3.00;;
40931;SDS011;36257;46.052;12.540;2022-11-20T10:03:06;3.97;;;3.60;;
40931;SDS011;36257;46.052;12.540;2022-11-20T10:05:56;3.60;;;2.95;;
40931;SDS011;36257;46.052;12.540;2022-11-20T10:08:28;3.30;;;3.00;;
40931;SDS011;36257;46.052;12.540;2022-11-20T10:11:21;4.18;;;3.22;;
40931;SDS011;36257;46.052;12.540;2022-11-20T10:16:28;3.13;;;2.83;;
40931;SDS011;36257;46.052;12.540;2022-11-20T10:29:45;3.25;;;2.83;;
40931;SDS011;36257;46.052;12.540;2022-11-20T10:32:16;2.97;;;2.50;;
40931;SDS011;36257;46.052;12.540;2022-11-20T10:34:52;3.17;;;2.90;;
40931;SDS011;36257;46.052;12.540;2022-11-20T10:37:26;3.05;;;2.72;;
40931;SDS011;36257;46.052;12.540;2022-11-20T10:42:41;3.22;;;2.92;;
40931;SDS011;36257;46.052;12.540;2022-11-20T10:47:50;4.20;;;3.80;;
40931;SDS011;36257;46.052;12.540;2022-11-20T10:50:21;5.70;;;3.95;;
40931;SDS011;36257;46.052;12.540;2022-11-20T10:53:01;5.25;;;3.75;;
40931;SDS011;36257;46.052;12.540;2022-11-20T10:55:40;4.00;;;3.50;;
40931;SDS011;36257;46.052;12.540;2022-11-20T10:58:21;4.03;;;3.55;;
40931;SDS011;36257;46.052;12.540;2022-11-20T11:01:15;3.88;;;3.47;;
40931;SDS011;36257;46.052;12.540;2022-11-20T11:03:43;3.67;;;3.38;;
40931;SDS011;36257;46.052;12.540;2022-11-20T11:08:43;3.58;;;3.20;;
40931;SDS011;36257;46.052;12.540;2022-11-20T11:13:52;2.95;;;2.70;;
40931;SDS011;36257;46.052;12.540;2022-11-20T11:16:28;3.63;;;3.22;;
40931;SDS011;36257;46.052;12.540;2022-11-20T11:19:07;3.22;;;2.92;;
40931;SDS011;36257;46.052;12.540;2022-11-20T11:21:37;4.13;;;2.33;;
40931;SDS011;36257;46.052;12.540;2022-11-20T11:24:14;3.42;;;2.20;;
40931;SDS011;36257;46.052;12.540;2022-11-20T11:26:55;2.50;;;2.30;;
40931;SDS011;36257;46.052;12.540;2022-11-20T11:29:23;3.00;;;2.70;;
40931;SDS011;36257;46.052;12.540;2022-11-20T11:32:02;3.17;;;2.88;;
40931;SDS011;36257;46.052;12.540;2022-11-20T11:34:32;3.45;;;3.00;;
40931;SDS011;36257;46.052;12.540;2022-11-20T11:36:58;2.72;;;2.53;;
40931;SDS011;36257;46.052;12.540;2022-11-20T11:39:26;3.55;;;3.05;;
40931;SDS011;36257;46.052;12.540;2022-11-20T11:41:53;2.90;;;2.40;;
40931;SDS011;36257;46.052;12.540;2022-11-20T11:44:20;3.65;;;3.20;;
40931;SDS011;36257;46.052;12.540;2022-11-20T11:52:38;3.55;;;3.00;;
40931;SDS011;36257;46.052;12.540;2022-11-20T12:03:21;4.47;;;3.60;;
40931;SDS011;36257;46.052;12.540;2022-11-20T12:05:53;3.75;;;3.42;;
40931;SDS011;36257;46.052;12.540;2022-11-20T12:11:00;5.43;;;3.60;;
40931;SDS011;36257;46.052;12.540;2022-11-20T12:16:16;4.97;;;3.75;;
40931;SDS011;36257;46.052;12.540;2022-11-20T12:18:49;5.10;;;4.32;;
40931;SDS011;36257;46.052;12.540;2022-11-20T12:32:37;3.30;;;2.53;;
40931;SDS011;36257;46.052;12.540;2022-11-20T12:43:30;3.25;;;2.95;;
40931;SDS011;36257;46.052;12.540;2022-11-20T12:52:00;3.10;;;2.80;;
40931;SDS011;36257;46.052;12.540;2022-11-20T12:54:46;5.57;;;2.35;;
40931;SDS011;36257;46.052;12.540;2022-11-20T13:00:08;4.70;;;2.10;;
40931;SDS011;36257;46.052;12.540;2022-11-20T13:11:03;3.00;;;2.10;;
40931;SDS011;36257;46.052;12.540;2022-11-20T13:13:46;3.80;;;2.38;;
40931;SDS011;36257;46.052;12.540;2022-11-20T13:19:13;5.07;;;2.80;;
40931;SDS011;36257;46.052;12.540;2022-11-20T13:21:42;2.80;;;2.35;;
40931;SDS011;36257;46.052;12.540;2022-11-20T13:24:22;25.13;;;19.52;;
40931;SDS011;36257;46.052;12.540;2022-11-20T13:29:33;2.72;;;2.50;;
40931;SDS011;36257;46.052;12.540;2022-11-20T13:42:43;3.50;;;2.22;;
40931;SDS011;36257;46.052;12.540;2022-11-20T13:45:28;3.40;;;2.60;;
40931;SDS011;36257;46.052;12.540;2022-11-20T13:47:56;3.05;;;2.58;;
40931;SDS011;36257;46.052;12.540;2022-11-20T13:53:36;3.50;;;2.47;;
40931;SDS011;36257;46.052;12.540;2022-11-20T13:56:21;3.08;;;2.42;;
40931;SDS011;36257;46.052;12.540;2022-11-20T13:58:52;3.75;;;2.83;;
40931;SDS011;36257;46.052;12.540;2022-11-20T14:01:33;4.13;;;3.00;;
40931;SDS011;36257;46.052;12.540;2022-11-20T14:04:01;3.63;;;3.00;;
40931;SDS011;36257;46.052;12.540;2022-11-20T14:06:43;3.95;;;3.55;;
40931;SDS011;36257;46.052;12.540;2022-11-20T14:09:30;3.80;;;3.25;;
40931;SDS011;36257;46.052;12.540;2022-11-20T14:11:58;4.20;;;3.80;;
40931;SDS011;36257;46.052;12.540;2022-11-20T14:14:25;4.35;;;3.95;;
40931;SDS011;36257;46.052;12.540;2022-11-20T14:16:53;4.32;;;3.88;;
40931;SDS011;36257;46.052;12.540;2022-11-20T14:19:30;6.53;;;3.80;;
40931;SDS011;36257;46.052;12.540;2022-11-20T14:27:13;4.70;;;4.18;;
40931;SDS011;36257;46.052;12.540;2022-11-20T14:29:41;8.13;;;4.38;;
40931;SDS011;36257;46.052;12.540;2022-11-20T14:32:07;6.00;;;3.92;;
40931;SDS011;36257;46.052;12.540;2022-11-20T14:34:36;6.15;;;4.18;;
40931;SDS011;36257;46.052;12.540;2022-11-20T14:37:12;5.07;;;3.63;;
40931;SDS011;36257;46.052;12.540;2022-11-20T14:39:48;5.40;;;4.25;;
40931;SDS011;36257;46.052;12.540;2022-11-20T14:42:26;5.60;;;3.83;;
40931;SDS011;36257;46.052;12.540;2022-11-20T14:44:57;4.20;;;3.80;;
40931;SDS011;36257;46.052;12.540;2022-11-20T14:47:25;4.65;;;3.90;;
40931;SDS011;36257;46.052;12.540;2022-11-20T14:49:52;4.93;;;4.40;;
40931;SDS011;36257;46.052;12.540;2022-11-20T14:52:23;7.82;;;6.57;;
40931;SDS011;36257;46.052;12.540;2022-11-20T14:54:55;6.97;;;6.20;;
40931;SDS011;36257;46.052;12.540;2022-11-20T15:02:41;5.68;;;4.55;;
40931;SDS011;36257;46.052;12.540;2022-11-20T15:05:08;4.80;;;4.07;;
40931;SDS011;36257;46.052;12.540;2022-11-20T15:07:38;4.30;;;3.90;;
40931;SDS011;36257;46.052;12.540;2022-11-20T15:10:09;4.47;;;3.83;;
40931;SDS011;36257;46.052;12.540;2022-11-20T15:12:41;4.22;;;3.83;;
40931;SDS011;36257;46.052;12.540;2022-11-20T15:15:44;5.85;;;3.97;;
40931;SDS011;36257;46.052;12.540;2022-11-20T15:18:15;6.90;;;4.45;;
40931;SDS011;36257;46.052;12.540;2022-11-20T15:20:43;4.78;;;4.28;;
40931;SDS011;36257;46.052;12.540;2022-11-20T15:23:10;4.00;;;3.63;;
40931;SDS011;36257;46.052;12.540;2022-11-20T15:25:38;6.88;;;5.43;;
40931;SDS011;36257;46.052;12.540;2022-11-20T15:28:07;6.30;;;5.13;;
40931;SDS011;36257;46.052;12.540;2022-11-20T15:30:42;6.15;;;5.55;;
40931;SDS011;36257;46.052;12.540;2022-11-20T15:33:09;5.88;;;5.28;;
40931;SDS011;36257;46.052;12.540;2022-11-20T15:35:35;6.82;;;5.78;;
40931;SDS011;36257;46.052;12.540;2022-11-20T15:38:01;8.57;;;7.30;;
40931;SDS011;36257;46.052;12.540;2022-11-20T15:40:26;8.00;;;7.20;;
40931;SDS011;36257;46.052;12.540;2022-11-20T15:42:52;8.43;;;7.60;;
40931;SDS011;36257;46.052;12.540;2022-11-20T15:45:36;8.98;;;7.18;;
40931;SDS011;36257;46.052;12.540;2022-11-20T15:48:14;13.70;;;8.77;;
40931;SDS011;36257;46.052;12.540;2022-11-20T15:53:36;19.88;;;14.32;;
40931;SDS011;36257;46.052;12.540;2022-11-20T15:56:03;30.35;;;21.20;;
40931;SDS011;36257;46.052;12.540;2022-11-20T15:58:29;20.13;;;16.30;;
40931;SDS011;36257;46.052;12.540;2022-11-20T16:00:55;28.20;;;25.30;;
40931;SDS011;36257;46.052;12.540;2022-11-20T16:03:21;23.17;;;20.75;;
40931;SDS011;36257;46.052;12.540;2022-11-20T16:05:46;26.83;;;23.92;;
40931;SDS011;36257;46.052;12.540;2022-11-20T16:08:12;20.48;;;14.95;;
40931;SDS011;36257;46.052;12.540;2022-11-20T16:10:38;19.15;;;15.13;;
40931;SDS011;36257;46.052;12.540;2022-11-20T16:13:05;18.88;;;13.50;;
40931;SDS011;36257;46.052;12.540;2022-11-20T16:15:58;16.13;;;12.00;;
40931;SDS011;36257;46.052;12.540;2022-11-20T16:18:26;15.77;;;10.48;;
40931;SDS011;36257;46.052;12.540;2022-11-20T16:20:53;14.02;;;10.07;;
40931;SDS011;36257;46.052;12.540;2022-11-20T16:23:20;13.10;;;10.05;;
40931;SDS011;36257;46.052;12.540;2022-11-20T16:25:46;15.80;;;12.52;;
40931;SDS011;36257;46.052;12.540;2022-11-20T16:28:12;20.08;;;14.98;;
40931;SDS011;36257;46.052;12.540;2022-11-20T16:30:38;21.30;;;14.27;;
40931;SDS011;36257;46.052;12.540;2022-11-20T16:33:08;17.27;;;11.70;;
40931;SDS011;36257;46.052;12.540;2022-11-20T16:35:36;11.13;;;8.55;;
40931;SDS011;36257;46.052;12.540;2022-11-20T16:38:02;10.30;;;7.55;;
40931;SDS011;36257;46.052;12.540;2022-11-20T16:40:28;11.48;;;8.73;;
40931;SDS011;36257;46.052;12.540;2022-11-20T16:42:54;11.38;;;8.60;;
40931;SDS011;36257;46.052;12.540;2022-11-20T16:45:19;10.18;;;8.20;;
40931;SDS011;36257;46.052;12.540;2022-11-20T16:47:45;10.07;;;7.97;;
40931;SDS011;36257;46.052;12.540;2022-11-20T16:50:11;9.43;;;6.57;;
40931;SDS011;36257;46.052;12.540;2022-11-20T16:52:37;7.97;;;6.50;;
40931;SDS011;36257;46.052;12.540;2022-11-20T16:55:02;10.63;;;8.60;;
40931;SDS011;36257;46.052;12.540;2022-11-20T16:57:31;10.80;;;9.57;;
40931;SDS011;36257;46.052;12.540;2022-11-20T16:59:58;16.17;;;11.48;;
40931;SDS011;36257;46.052;12.540;2022-11-20T17:02:33;13.07;;;10.07;;
40931;SDS011;36257;46.052;12.540;2022-11-20T17:04:59;16.08;;;12.05;;
40931;SDS011;36257;46.052;12.540;2022-11-20T17:07:24;16.75;;;13.30;;
40931;SDS011;36257;46.052;12.540;2022-11-20T17:09:50;15.95;;;12.88;;
40931;SDS011;36257;46.052;12.540;2022-11-20T17:12:16;13.73;;;10.90;;
40931;SDS011;36257;46.052;12.540;2022-11-20T17:14:41;16.48;;;13.30;;
40931;SDS011;36257;46.052;12.540;2022-11-20T17:17:07;16.17;;;12.93;;
40931;SDS011;36257;46.052;12.540;2022-11-20T17:19:32;14.98;;;12.35;;
40931;SDS011;36257;46.052;12.540;2022-11-20T17:21:58;25.42;;;14.65;;
40931;SDS011;36257;46.052;12.540;2022-11-20T17:24:24;9.35;;;7.10;;
40931;SDS011;36257;46.052;12.540;2022-11-20T17:26:50;6.95;;;5.75;;
40931;SDS011;36257;46.052;12.540;2022-11-20T17:29:16;6.25;;;5.65;;
40931;SDS011;36257;46.052;12.540;2022-11-20T17:31:45;8.70;;;7.80;;
40931;SDS011;36257;46.052;12.540;2022-11-20T17:34:13;11.75;;;9.95;;
40931;SDS011;36257;46.052;12.540;2022-11-20T17:36:39;11.68;;;9.55;;
40931;SDS011;36257;46.052;12.540;2022-11-20T17:39:08;11.68;;;10.48;;
40931;SDS011;36257;46.052;12.540;2022-11-20T17:41:35;8.05;;;7.05;;
40931;SDS011;36257;46.052;12.540;2022-11-20T17:44:00;10.13;;;8.60;;
40931;SDS011;36257;46.052;12.540;2022-11-20T17:46:27;8.77;;;7.95;;
40931;SDS011;36257;46.052;12.540;2022-11-20T17:48:56;7.97;;;7.18;;
40931;SDS011;36257;46.052;12.540;2022-11-20T17:51:26;7.78;;;6.40;;
40931;SDS011;36257;46.052;12.540;2022-11-20T17:53:58;6.82;;;6.20;;
40931;SDS011;36257;46.052;12.540;2022-11-20T17:56:25;8.15;;;6.85;;
40931;SDS011;36257;46.052;12.540;2022-11-20T17:59:10;7.20;;;5.35;;
40931;SDS011;36257;46.052;12.540;2022-11-20T18:01:37;6.18;;;5.22;;
40931;SDS011;36257;46.052;12.540;2022-11-20T18:04:03;6.88;;;5.75;;